sensor_id;sensor_type;location;lat;lon;timestamp;pressure;altitude;pressure_sealevel;temperature;humidity
53908;BME280;40469;47.998;7.794;2023-04-24T00:01:39;98032.91;;;11.27;100.00
53908;BME280;40469;47.998;7.794;2023-04-24T00:04:05;98031.88;;;11.33;100.00
53908;BME280;40469;47.998;7.794;2023-04-24T00:06:32;98042.63;;;11.22;100.00
53908;BME280;40469;47.998;7.794;2023-04-24T00:09:03;98038.06;;;11.30;100.00
53908;BME280;40469;47.998;7.794;2023-04-24T00:11:29;98041.72;;;11.25;100.00
53908;BME280;40469;47.998;7.794;2023-04-24T00:13:55;98043.41;;;11.26;100.00
53908;BME280;40469;47.998;7.794;2023-04-24T00:16:21;98044.69;;;11.11;100.00
53908;BME280;40469;47.998;7.794;2023-04-24T00:18:46;98047.34;;;11.09;100.00
53908;BME280;40469;47.998;7.794;2023-04-24T00:21:13;98050.81;;;11.10;100.00
53908;BME280;40469;47.998;7.794;2023-04-24T00:23:38;98050.88;;;11.08;100.00
53908;BME280;40469;47.998;7.794;2023-04-24T00:26:04;98073.19;;;11.20;100.00
53908;BME280;40469;47.998;7.794;2023-04-24T00:28:29;98064.31;;;11.26;100.00
53908;BME280;40469;47.998;7.794;2023-04-24T00:30:54;98070.59;;;11.18;100.00
53908;BME280;40469;47.998;7.794;2023-04-24T00:33:20;98062.94;;;11.12;100.00
53908;BME280;40469;47.998;7.794;2023-04-24T00:35:45;98072.25;;;11.23;100.00
53908;BME280;40469;47.998;7.794;2023-04-24T00:38:10;98054.16;;;11.15;100.00
53908;BME280;40469;47.998;7.794;2023-04-24T00:40:36;98073.03;;;11.26;100.00
53908;BME280;40469;47.998;7.794;2023-04-24T00:43:02;98064.56;;;11.16;100.00
53908;BME280;40469;47.998;7.794;2023-04-24T00:45:27;98056.63;;;11.21;100.00
53908;BME280;40469;47.998;7.794;2023-04-24T00:47:53;98056.91;;;11.10;100.00
53908;BME280;40469;47.998;7.794;2023-04-24T00:50:18;98067.47;;;11.06;100.00
53908;BME280;40469;47.998;7.794;2023-04-24T00:52:46;98072.72;;;11.04;100.00
53908;BME280;40469;47.998;7.794;2023-04-24T00:55:12;98065.81;;;11.03;100.00
53908;BME280;40469;47.998;7.794;2023-04-24T00:57:37;98074.59;;;10.99;100.00
53908;BME280;40469;47.998;7.794;2023-04-24T01:00:04;98062.22;;;11.07;100.00
53908;BME280;40469;47.998;7.794;2023-04-24T01:02:31;98057.84;;;11.08;100.00
53908;BME280;40469;47.998;7.794;2023-04-24T01:05:00;98056.31;;;10.99;100.00
53908;BME280;40469;47.998;7.794;2023-04-24T01:07:27;98056.31;;;10.99;100.00
53908;BME280;40469;47.998;7.794;2023-04-24T01:09:52;98046.81;;;10.96;100.00
53908;BME280;40469;47.998;7.794;2023-04-24T01:12:19;98037.22;;;10.97;100.00
53908;BME280;40469;47.998;7.794;2023-04-24T01:14:44;98036.44;;;10.93;100.00
53908;BME280;40469;47.998;7.794;2023-04-24T01:17:10;98040.84;;;10.91;100.00
53908;BME280;40469;47.998;7.794;2023-04-24T01:19:36;98037.13;;;11.02;100.00
53908;BME280;40469;47.998;7.794;2023-04-24T01:22:02;98045.97;;;10.96;100.00
53908;BME280;40469;47.998;7.794;2023-04-24T01:24:28;98049.25;;;11.03;100.00
53908;BME280;40469;47.998;7.794;2023-04-24T01:26:54;98039.13;;;10.90;100.00
53908;BME280;40469;47.998;7.794;2023-04-24T01:29:20;98042.31;;;11.03;100.00
53908;BME280;40469;47.998;7.794;2023-04-24T01:31:46;98031.78;;;11.05;100.00
53908;BME280;40469;47.998;7.794;2023-04-24T01:34:12;98025.78;;;11.01;100.00
53908;BME280;40469;47.998;7.794;2023-04-24T01:36:37;98033.00;;;10.93;100.00
53908;BME280;40469;47.998;7.794;2023-04-24T01:39:03;98032.09;;;10.92;100.00
53908;BME280;40469;47.998;7.794;2023-04-24T01:41:30;98029.63;;;10.88;100.00
53908;BME280;40469;47.998;7.794;2023-04-24T01:43:57;98032.28;;;10.86;100.00
53908;BME280;40469;47.998;7.794;2023-04-24T01:46:24;98040.44;;;10.74;100.00
53908;BME280;40469;47.998;7.794;2023-04-24T01:48:51;98034.41;;;10.72;100.00
53908;BME280;40469;47.998;7.794;2023-04-24T01:51:16;98031.72;;;10.75;100.00
53908;BME280;40469;47.998;7.794;2023-04-24T01:53:42;98028.31;;;10.71;100.00
53908;BME280;40469;47.998;7.794;2023-04-24T01:56:08;98031.06;;;10.65;100.00
53908;BME280;40469;47.998;7.794;2023-04-24T01:58:33;98038.09;;;10.63;100.00
53908;BME280;40469;47.998;7.794;2023-04-24T02:00:59;98043.00;;;10.75;100.00
53908;BME280;40469;47.998;7.794;2023-04-24T02:03:26;98030.94;;;10.71;100.00
53908;BME280;40469;47.998;7.794;2023-04-24T02:05:51;98042.19;;;10.73;100.00
53908;BME280;40469;47.998;7.794;2023-04-24T02:08:17;98043.03;;;10.74;100.00
53908;BME280;40469;47.998;7.794;2023-04-24T02:10:42;98034.16;;;10.81;100.00
53908;BME280;40469;47.998;7.794;2023-04-24T02:13:07;98035.13;;;10.77;100.00
53908;BME280;40469;47.998;7.794;2023-04-24T02:15:33;98036.84;;;10.78;100.00
53908;BME280;40469;47.998;7.794;2023-04-24T02:17:58;98040.63;;;10.66;100.00
53908;BME280;40469;47.998;7.794;2023-04-24T02:20:23;98037.69;;;10.80;100.00
53908;BME280;40469;47.998;7.794;2023-04-24T02:22:49;98039.78;;;10.64;100.00
53908;BME280;40469;47.998;7.794;2023-04-24T02:25:14;98043.25;;;10.66;100.00
53908;BME280;40469;47.998;7.794;2023-04-24T02:27:40;98032.84;;;10.65;100.00
53908;BME280;40469;47.998;7.794;2023-04-24T02:30:06;98033.84;;;10.59;100.00
53908;BME280;40469;47.998;7.794;2023-04-24T02:32:32;98033.25;;;10.48;100.00
53908;BME280;40469;47.998;7.794;2023-04-24T02:34:58;98026.03;;;10.59;100.00
53908;BME280;40469;47.998;7.794;2023-04-24T02:37:24;98025.94;;;10.62;100.00
53908;BME280;40469;47.998;7.794;2023-04-24T02:39:49;98038.13;;;10.61;100.00
53908;BME280;40469;47.998;7.794;2023-04-24T02:42:15;98047.78;;;10.58;100.00
53908;BME280;40469;47.998;7.794;2023-04-24T02:44:40;98052.13;;;10.59;100.00
53908;BME280;40469;47.998;7.794;2023-04-24T02:47:06;98051.97;;;10.65;100.00
53908;BME280;40469;47.998;7.794;2023-04-24T02:49:31;98056.34;;;10.65;100.00
53908;BME280;40469;47.998;7.794;2023-04-24T02:51:57;98050.06;;;10.72;100.00
53908;BME280;40469;47.998;7.794;2023-04-24T02:54:22;98052.91;;;10.62;100.00
53908;BME280;40469;47.998;7.794;2023-04-24T02:56:48;98038.09;;;10.63;100.00
53908;BME280;40469;47.998;7.794;2023-04-24T02:59:13;98043.34;;;10.61;100.00
53908;BME280;40469;47.998;7.794;2023-04-24T03:01:38;98044.00;;;10.71;100.00
53908;BME280;40469;47.998;7.794;2023-04-24T03:04:04;98037.25;;;10.62;100.00
53908;BME280;40469;47.998;7.794;2023-04-24T03:06:31;98045.59;;;10.77;100.00
53908;BME280;40469;47.998;7.794;2023-04-24T03:08:57;98057.81;;;10.75;100.00
53908;BME280;40469;47.998;7.794;2023-04-24T03:11:23;98061.38;;;10.71;100.00
53908;BME280;40469;47.998;7.794;2023-04-24T03:13:48;98056.06;;;10.75;100.00
53908;BME280;40469;47.998;7.794;2023-04-24T03:16:14;98043.25;;;10.66;100.00
53908;BME280;40469;47.998;7.794;2023-04-24T03:18:39;98052.19;;;10.56;100.00
53908;BME280;40469;47.998;7.794;2023-04-24T03:21:04;98051.16;;;10.63;100.00
53908;BME280;40469;47.998;7.794;2023-04-24T03:23:30;98066.88;;;10.60;100.00
53908;BME280;40469;47.998;7.794;2023-04-24T03:25:55;98049.75;;;10.48;100.00
53908;BME280;40469;47.998;7.794;2023-04-24T03:28:20;98050.41;;;10.58;100.00
53908;BME280;40469;47.998;7.794;2023-04-24T03:30:46;98054.78;;;10.57;100.00
53908;BME280;40469;47.998;7.794;2023-04-24T03:33:11;98056.66;;;10.51;100.00
53908;BME280;40469;47.998;7.794;2023-04-24T03:35:37;98062.44;;;10.26;100.00
53908;BME280;40469;47.998;7.794;2023-04-24T03:38:02;98066.72;;;10.29;100.00
53908;BME280;40469;47.998;7.794;2023-04-24T03:40:29;98077.13;;;10.32;100.00
53908;BME280;40469;47.998;7.794;2023-04-24T03:42:55;98078.66;;;10.40;100.00
53908;BME280;40469;47.998;7.794;2023-04-24T03:45:20;98079.88;;;10.24;100.00
53908;BME280;40469;47.998;7.794;2023-04-24T03:47:45;98074.66;;;10.24;100.00
53908;BME280;40469;47.998;7.794;2023-04-24T03:50:11;98080.63;;;10.29;100.00
53908;BME280;40469;47.998;7.794;2023-04-24T03:52:36;98083.31;;;10.26;100.00
53908;BME280;40469;47.998;7.794;2023-04-24T03:55:02;98088.47;;;10.29;100.00
53908;BME280;40469;47.998;7.794;2023-04-24T03:57:27;98097.00;;;10.36;100.00
53908;BME280;40469;47.998;7.794;2023-04-24T03:59:53;98094.41;;;10.36;100.00
53908;BME280;40469;47.998;7.794;2023-04-24T04:02:19;98098.91;;;10.29;100.00
53908;BME280;40469;47.998;7.794;2023-04-24T04:04:44;98098.16;;;10.22;100.00
53908;BME280;40469;47.998;7.794;2023-04-24T04:07:09;98114.66;;;10.23;100.00
53908;BME280;40469;47.998;7.794;2023-04-24T04:09:36;98100.88;;;10.18;100.00
53908;BME280;40469;47.998;7.794;2023-04-24T04:12:01;98117.34;;;10.20;100.00
53908;BME280;40469;47.998;7.794;2023-04-24T04:14:27;98113.06;;;10.17;100.00
53908;BME280;40469;47.998;7.794;2023-04-24T04:16:53;98127.91;;;10.14;100.00
53908;BME280;40469;47.998;7.794;2023-04-24T04:19:18;98136.75;;;10.08;100.00
53908;BME280;40469;47.998;7.794;2023-04-24T04:21:44;98145.13;;;10.22;100.00
53908;BME280;40469;47.998;7.794;2023-04-24T04:24:11;98138.28;;;10.17;100.00
53908;BME280;40469;47.998;7.794;2023-04-24T04:26:37;98142.50;;;10.22;100.00
53908;BME280;40469;47.998;7.794;2023-04-24T04:29:03;98145.31;;;10.15;100.00
53908;BME280;40469;47.998;7.794;2023-04-24T04:31:28;98151.41;;;10.14;100.00
53908;BME280;40469;47.998;7.794;2023-04-24T04:33:54;98161.09;;;10.07;100.00
53908;BME280;40469;47.998;7.794;2023-04-24T04:36:19;98150.53;;;10.13;100.00
53908;BME280;40469;47.998;7.794;2023-04-24T04:38:45;98159.22;;;10.14;100.00
53908;BME280;40469;47.998;7.794;2023-04-24T04:41:10;98161.81;;;10.14;100.00
53908;BME280;40469;47.998;7.794;2023-04-24T04:43:36;98170.00;;;9.97;100.00
53908;BME280;40469;47.998;7.794;2023-04-24T04:46:01;98169.09;;;9.99;100.00
53908;BME280;40469;47.998;7.794;2023-04-24T04:48:34;98172.63;;;9.95;100.00
53908;BME280;40469;47.998;7.794;2023-04-24T04:51:00;98173.47;;;9.97;100.00
53908;BME280;40469;47.998;7.794;2023-04-24T04:53:25;98178.56;;;10.03;100.00
53908;BME280;40469;47.998;7.794;2023-04-24T04:55:51;98182.00;;;10.04;100.00
53908;BME280;40469;47.998;7.794;2023-04-24T04:58:16;98175.88;;;10.06;100.00
53908;BME280;40469;47.998;7.794;2023-04-24T05:00:42;98179.66;;;9.92;100.00
53908;BME280;40469;47.998;7.794;2023-04-24T05:03:07;98182.97;;;10.00;100.00
53908;BME280;40469;47.998;7.794;2023-04-24T05:05:32;98198.63;;;10.00;100.00
53908;BME280;40469;47.998;7.794;2023-04-24T05:07:58;98191.72;;;9.99;100.00
53908;BME280;40469;47.998;7.794;2023-04-24T05:10:23;98198.63;;;10.00;100.00
53908;BME280;40469;47.998;7.794;2023-04-24T05:12:49;98204.78;;;9.96;100.00
53908;BME280;40469;47.998;7.794;2023-04-24T05:15:14;98216.09;;;9.95;100.00
53908;BME280;40469;47.998;7.794;2023-04-24T05:17:40;98221.25;;;9.99;100.00
53908;BME280;40469;47.998;7.794;2023-04-24T05:20:06;98224.75;;;9.97;100.00
53908;BME280;40469;47.998;7.794;2023-04-24T05:22:32;98227.22;;;10.04;100.00
53908;BME280;40469;47.998;7.794;2023-04-24T05:24:57;98217.94;;;9.90;100.00
53908;BME280;40469;47.998;7.794;2023-04-24T05:27:23;98210.13;;;9.90;100.00
53908;BME280;40469;47.998;7.794;2023-04-24T05:29:49;98224.34;;;9.73;100.00
53908;BME280;40469;47.998;7.794;2023-04-24T05:32:14;98215.75;;;9.68;100.00
53908;BME280;40469;47.998;7.794;2023-04-24T05:34:39;98224.31;;;9.75;100.00
53908;BME280;40469;47.998;7.794;2023-04-24T05:37:05;98230.63;;;9.61;100.00
53908;BME280;40469;47.998;7.794;2023-04-24T05:39:33;98236.63;;;9.66;100.00
53908;BME280;40469;47.998;7.794;2023-04-24T05:42:00;98232.97;;;9.77;100.00
53908;BME280;40469;47.998;7.794;2023-04-24T05:44:26;98238.31;;;9.69;100.00
53908;BME280;40469;47.998;7.794;2023-04-24T05:46:51;98243.59;;;9.66;100.00
53908;BME280;40469;47.998;7.794;2023-04-24T05:49:17;98265.38;;;9.62;100.00
53908;BME280;40469;47.998;7.794;2023-04-24T05:51:42;98270.47;;;9.68;100.00
53908;BME280;40469;47.998;7.794;2023-04-24T05:54:07;98262.81;;;9.60;100.00
53908;BME280;40469;47.998;7.794;2023-04-24T05:56:33;98279.16;;;9.68;100.00
53908;BME280;40469;47.998;7.794;2023-04-24T05:58:58;98272.28;;;9.63;100.00
53908;BME280;40469;47.998;7.794;2023-04-24T06:01:24;98274.88;;;9.64;100.00
53908;BME280;40469;47.998;7.794;2023-04-24T06:03:50;98277.50;;;9.64;100.00
53908;BME280;40469;47.998;7.794;2023-04-24T06:06:15;98272.34;;;9.60;100.00
53908;BME280;40469;47.998;7.794;2023-04-24T06:08:41;98279.16;;;9.67;100.00
53908;BME280;40469;47.998;7.794;2023-04-24T06:11:10;98283.44;;;9.73;100.00
53908;BME280;40469;47.998;7.794;2023-04-24T06:13:36;98291.25;;;9.74;100.00
53908;BME280;40469;47.998;7.794;2023-04-24T06:16:01;98286.78;;;9.79;100.00
53908;BME280;40469;47.998;7.794;2023-04-24T06:18:26;98297.97;;;9.86;100.00
53908;BME280;40469;47.998;7.794;2023-04-24T06:20:52;98298.72;;;9.93;100.00
53908;BME280;40469;47.998;7.794;2023-04-24T06:23:17;98302.31;;;9.85;100.00
53908;BME280;40469;47.998;7.794;2023-04-24T06:25:42;98303.19;;;9.84;100.00
53908;BME280;40469;47.998;7.794;2023-04-24T06:28:08;98311.16;;;9.77;100.00
53908;BME280;40469;47.998;7.794;2023-04-24T06:30:33;98314.59;;;9.79;100.00
53908;BME280;40469;47.998;7.794;2023-04-24T06:32:59;98312.78;;;9.84;100.00
53908;BME280;40469;47.998;7.794;2023-04-24T06:35:24;98318.00;;;9.82;100.00
53908;BME280;40469;47.998;7.794;2023-04-24T06:37:49;98306.72;;;9.82;100.00
53908;BME280;40469;47.998;7.794;2023-04-24T06:40:15;98328.44;;;9.82;100.00
53908;BME280;40469;47.998;7.794;2023-04-24T06:42:40;98321.72;;;9.69;100.00
53908;BME280;40469;47.998;7.794;2023-04-24T06:45:06;98328.69;;;9.67;100.00
53908;BME280;40469;47.998;7.794;2023-04-24T06:47:32;98332.88;;;9.77;100.00
53908;BME280;40469;47.998;7.794;2023-04-24T06:49:57;98333.06;;;9.66;100.00
53908;BME280;40469;47.998;7.794;2023-04-24T06:52:23;98334.81;;;9.64;100.00
53908;BME280;40469;47.998;7.794;2023-04-24T06:54:48;98335.56;;;9.73;100.00
53908;BME280;40469;47.998;7.794;2023-04-24T06:57:14;98336.44;;;9.73;100.00
53908;BME280;40469;47.998;7.794;2023-04-24T06:59:41;98348.50;;;9.79;100.00
53908;BME280;40469;47.998;7.794;2023-04-24T07:02:06;98353.84;;;9.71;100.00
53908;BME280;40469;47.998;7.794;2023-04-24T07:04:31;98351.19;;;9.74;100.00
53908;BME280;40469;47.998;7.794;2023-04-24T07:06:57;98351.22;;;9.73;100.00
53908;BME280;40469;47.998;7.794;2023-04-24T07:09:24;98363.25;;;9.81;100.00
53908;BME280;40469;47.998;7.794;2023-04-24T07:11:51;98360.63;;;9.81;100.00
53908;BME280;40469;47.998;7.794;2023-04-24T07:14:16;98364.91;;;9.85;100.00
53908;BME280;40469;47.998;7.794;2023-04-24T07:16:42;98370.31;;;9.73;100.00
53908;BME280;40469;47.998;7.794;2023-04-24T07:19:09;98369.38;;;9.77;100.00
53908;BME280;40469;47.998;7.794;2023-04-24T07:21:34;98365.88;;;9.78;100.00
53908;BME280;40469;47.998;7.794;2023-04-24T07:23:59;98369.94;;;9.96;100.00
53908;BME280;40469;47.998;7.794;2023-04-24T07:26:26;98370.50;;;10.14;100.00
53908;BME280;40469;47.998;7.794;2023-04-24T07:28:52;98374.78;;;10.18;100.00
53908;BME280;40469;47.998;7.794;2023-04-24T07:31:17;98382.41;;;10.29;100.00
53908;BME280;40469;47.998;7.794;2023-04-24T07:33:42;98379.44;;;10.50;100.00
53908;BME280;40469;47.998;7.794;2023-04-24T07:36:08;98387.94;;;10.60;100.00
53908;BME280;40469;47.998;7.794;2023-04-24T07:38:33;98392.91;;;10.74;100.00
53908;BME280;40469;47.998;7.794;2023-04-24T07:40:59;98385.75;;;10.84;100.00
53908;BME280;40469;47.998;7.794;2023-04-24T07:43:24;98398.13;;;10.74;100.00
53908;BME280;40469;47.998;7.794;2023-04-24T07:45:50;98396.94;;;10.89;100.00
53908;BME280;40469;47.998;7.794;2023-04-24T07:48:16;98396.03;;;10.91;100.00
53908;BME280;40469;47.998;7.794;2023-04-24T07:50:43;98404.47;;;11.04;100.00
53908;BME280;40469;47.998;7.794;2023-04-24T07:53:09;98407.66;;;11.18;100.00
53908;BME280;40469;47.998;7.794;2023-04-24T07:55:35;98405.59;;;10.92;100.00
53908;BME280;40469;47.998;7.794;2023-04-24T07:58:00;98406.53;;;10.90;100.00
53908;BME280;40469;47.998;7.794;2023-04-24T08:00:26;98412.81;;;10.79;100.00
53908;BME280;40469;47.998;7.794;2023-04-24T08:02:51;98417.94;;;10.86;100.00
53908;BME280;40469;47.998;7.794;2023-04-24T08:05:17;98427.50;;;10.85;100.00
53908;BME280;40469;47.998;7.794;2023-04-24T08:07:42;98419.25;;;10.61;100.00
53908;BME280;40469;47.998;7.794;2023-04-24T08:10:10;98425.91;;;10.76;100.00
53908;BME280;40469;47.998;7.794;2023-04-24T08:12:37;98438.06;;;10.80;100.00
53908;BME280;40469;47.998;7.794;2023-04-24T08:15:03;98428.22;;;10.93;100.00
53908;BME280;40469;47.998;7.794;2023-04-24T08:17:28;98434.28;;;10.94;100.00
53908;BME280;40469;47.998;7.794;2023-04-24T08:19:54;98439.25;;;11.08;100.00
53908;BME280;40469;47.998;7.794;2023-04-24T08:22:26;98437.13;;;11.27;100.00
53908;BME280;40469;47.998;7.794;2023-04-24T08:24:52;98446.63;;;11.70;100.00
53908;BME280;40469;47.998;7.794;2023-04-24T08:27:17;98444.91;;;11.69;100.00
53908;BME280;40469;47.998;7.794;2023-04-24T08:29:43;98445.66;;;11.75;100.00
53908;BME280;40469;47.998;7.794;2023-04-24T08:32:08;98445.66;;;11.75;100.00
53908;BME280;40469;47.998;7.794;2023-04-24T08:34:34;98447.81;;;11.95;100.00
53908;BME280;40469;47.998;7.794;2023-04-24T08:36:59;98444.84;;;12.11;100.00
53908;BME280;40469;47.998;7.794;2023-04-24T08:39:24;98450.50;;;11.92;100.00
53908;BME280;40469;47.998;7.794;2023-04-24T08:41:50;98452.03;;;12.01;100.00
53908;BME280;40469;47.998;7.794;2023-04-24T08:44:18;98462.81;;;11.86;100.00
53908;BME280;40469;47.998;7.794;2023-04-24T08:46:44;98465.56;;;11.81;100.00
53908;BME280;40469;47.998;7.794;2023-04-24T08:49:13;98457.81;;;11.76;100.00
53908;BME280;40469;47.998;7.794;2023-04-24T08:51:39;98474.28;;;11.80;100.00
53908;BME280;40469;47.998;7.794;2023-04-24T08:54:04;98473.41;;;11.81;100.00
53908;BME280;40469;47.998;7.794;2023-04-24T08:56:33;98467.00;;;11.94;100.00
53908;BME280;40469;47.998;7.794;2023-04-24T08:58:59;98464.78;;;12.15;100.00
53908;BME280;40469;47.998;7.794;2023-04-24T09:01:24;98475.97;;;12.22;100.00
53908;BME280;40469;47.998;7.794;2023-04-24T09:03:51;98483.97;;;12.16;100.00
53908;BME280;40469;47.998;7.794;2023-04-24T09:06:18;98472.09;;;12.02;100.00
53908;BME280;40469;47.998;7.794;2023-04-24T09:08:45;98462.06;;;12.20;100.00
53908;BME280;40469;47.998;7.794;2023-04-24T09:11:11;98476.63;;;12.30;100.00
53908;BME280;40469;47.998;7.794;2023-04-24T09:13:37;98485.53;;;12.23;100.00
53908;BME280;40469;47.998;7.794;2023-04-24T09:16:02;98488.09;;;12.26;100.00
53908;BME280;40469;47.998;7.794;2023-04-24T09:18:28;98496.13;;;12.18;100.00
53908;BME280;40469;47.998;7.794;2023-04-24T09:21:01;98497.94;;;12.16;100.00
53908;BME280;40469;47.998;7.794;2023-04-24T09:23:29;98502.78;;;11.94;100.00
53908;BME280;40469;47.998;7.794;2023-04-24T09:25:56;98497.97;;;12.14;100.00
53908;BME280;40469;47.998;7.794;2023-04-24T09:28:32;98491.47;;;12.29;100.00
53908;BME280;40469;47.998;7.794;2023-04-24T09:31:13;98498.13;;;12.44;100.00
53908;BME280;40469;47.998;7.794;2023-04-24T09:33:53;98507.59;;;12.12;100.00
53908;BME280;40469;47.998;7.794;2023-04-24T09:36:27;98505.69;;;11.79;100.00
53908;BME280;40469;47.998;7.794;2023-04-24T09:38:55;98513.53;;;11.80;100.00
53908;BME280;40469;47.998;7.794;2023-04-24T09:41:22;98525.06;;;11.70;100.00
53908;BME280;40469;47.998;7.794;2023-04-24T09:43:47;98511.19;;;11.66;100.00
53908;BME280;40469;47.998;7.794;2023-04-24T09:46:13;98511.31;;;11.62;100.00
53908;BME280;40469;47.998;7.794;2023-04-24T09:48:39;98528.66;;;11.66;100.00
53908;BME280;40469;47.998;7.794;2023-04-24T09:51:05;98513.41;;;11.86;100.00
53908;BME280;40469;47.998;7.794;2023-04-24T09:53:37;98524.88;;;11.81;100.00
53908;BME280;40469;47.998;7.794;2023-04-24T09:56:08;98528.38;;;11.80;100.00
53908;BME280;40469;47.998;7.794;2023-04-24T09:58:35;98523.22;;;12.53;100.00
53908;BME280;40469;47.998;7.794;2023-04-24T10:01:01;98520.69;;;12.48;99.25
53908;BME280;40469;47.998;7.794;2023-04-24T10:03:29;98520.34;;;12.97;95.86
53908;BME280;40469;47.998;7.794;2023-04-24T10:06:02;98524.03;;;13.83;88.89
53908;BME280;40469;47.998;7.794;2023-04-24T10:08:33;98532.53;;;12.98;87.82
53908;BME280;40469;47.998;7.794;2023-04-24T10:11:00;98527.97;;;12.71;88.53
53908;BME280;40469;47.998;7.794;2023-04-24T10:13:26;98540.16;;;12.38;91.22
53908;BME280;40469;47.998;7.794;2023-04-24T10:15:51;98540.63;;;12.18;93.91
53908;BME280;40469;47.998;7.794;2023-04-24T10:18:17;98541.09;;;12.70;96.36
53908;BME280;40469;47.998;7.794;2023-04-24T10:20:43;98544.47;;;12.75;98.95
53908;BME280;40469;47.998;7.794;2023-04-24T10:23:08;98545.13;;;12.49;96.34
53908;BME280;40469;47.998;7.794;2023-04-24T10:25:35;98551.81;;;12.25;100.00
53908;BME280;40469;47.998;7.794;2023-04-24T10:28:02;98544.38;;;12.06;100.00
53908;BME280;40469;47.998;7.794;2023-04-24T10:30:30;98544.28;;;12.11;100.00
53908;BME280;40469;47.998;7.794;2023-04-24T10:32:56;98550.28;;;12.52;100.00
53908;BME280;40469;47.998;7.794;2023-04-24T10:35:22;98552.25;;;12.42;100.00
53908;BME280;40469;47.998;7.794;2023-04-24T10:37:55;98540.19;;;12.37;100.00
53908;BME280;40469;47.998;7.794;2023-04-24T10:40:31;98541.41;;;12.22;100.00
53908;BME280;40469;47.998;7.794;2023-04-24T10:42:57;98547.72;;;12.13;100.00
53908;BME280;40469;47.998;7.794;2023-04-24T10:45:23;98535.75;;;12.01;100.00
53908;BME280;40469;47.998;7.794;2023-04-24T10:50:30;98541.50;;;12.17;100.00
53908;BME280;40469;47.998;7.794;2023-04-24T10:53:08;98551.84;;;12.23;100.00
53908;BME280;40469;47.998;7.794;2023-04-24T10:58:15;98552.94;;;12.13;100.00
53908;BME280;40469;47.998;7.794;2023-04-24T11:00:42;98552.50;;;11.94;100.00
53908;BME280;40469;47.998;7.794;2023-04-24T11:03:26;98560.41;;;11.91;100.00
53908;BME280;40469;47.998;7.794;2023-04-24T11:06:02;98567.38;;;11.92;100.00
53908;BME280;40469;47.998;7.794;2023-04-24T11:08:31;98563.94;;;11.88;100.00
53908;BME280;40469;47.998;7.794;2023-04-24T11:10:59;98564.84;;;11.86;100.00
53908;BME280;40469;47.998;7.794;2023-04-24T11:19:18;98556.56;;;11.65;100.00
53908;BME280;40469;47.998;7.794;2023-04-24T11:21:46;98560.97;;;11.63;100.00
53908;BME280;40469;47.998;7.794;2023-04-24T11:24:28;98574.75;;;11.70;100.00
53908;BME280;40469;47.998;7.794;2023-04-24T11:26:59;98567.72;;;11.73;100.00
53908;BME280;40469;47.998;7.794;2023-04-24T11:29:43;98571.78;;;11.88;100.00
53908;BME280;40469;47.998;7.794;2023-04-24T11:32:24;98573.81;;;11.74;100.00
53908;BME280;40469;47.998;7.794;2023-04-24T11:34:54;98574.22;;;11.98;100.00
53908;BME280;40469;47.998;7.794;2023-04-24T11:37:22;98560.06;;;12.06;100.00
53908;BME280;40469;47.998;7.794;2023-04-24T11:39:50;98559.66;;;12.25;100.00
53908;BME280;40469;47.998;7.794;2023-04-24T11:42:16;98555.75;;;12.05;100.00
53908;BME280;40469;47.998;7.794;2023-04-24T11:44:43;98553.88;;;12.48;100.00
53908;BME280;40469;47.998;7.794;2023-04-24T11:47:08;98559.41;;;13.06;100.00
53908;BME280;40469;47.998;7.794;2023-04-24T11:49:36;98557.19;;;13.23;100.00
53908;BME280;40469;47.998;7.794;2023-04-24T11:52:02;98545.75;;;13.26;100.00
53908;BME280;40469;47.998;7.794;2023-04-24T11:54:28;98546.13;;;13.46;100.00
53908;BME280;40469;47.998;7.794;2023-04-24T11:56:53;98540.44;;;13.29;100.00
53908;BME280;40469;47.998;7.794;2023-04-24T11:59:18;98539.38;;;13.68;100.00
53908;BME280;40469;47.998;7.794;2023-04-24T12:01:45;98538.00;;;13.21;100.00
53908;BME280;40469;47.998;7.794;2023-04-24T12:04:11;98537.00;;;12.94;100.00
53908;BME280;40469;47.998;7.794;2023-04-24T12:06:36;98536.97;;;12.96;100.00
53908;BME280;40469;47.998;7.794;2023-04-24T12:09:02;98512.03;;;12.46;100.00
53908;BME280;40469;47.998;7.794;2023-04-24T12:11:27;98544.84;;;12.60;100.00
53908;BME280;40469;47.998;7.794;2023-04-24T12:13:54;98543.16;;;12.59;100.00
53908;BME280;40469;47.998;7.794;2023-04-24T12:16:19;98539.28;;;12.74;100.00
53908;BME280;40469;47.998;7.794;2023-04-24T12:18:45;98532.66;;;12.93;100.00
53908;BME280;40469;47.998;7.794;2023-04-24T12:21:21;98531.59;;;13.00;100.00
53908;BME280;40469;47.998;7.794;2023-04-24T12:23:48;98542.25;;;12.94;100.00
53908;BME280;40469;47.998;7.794;2023-04-24T12:26:20;98539.78;;;12.88;100.00
53908;BME280;40469;47.998;7.794;2023-04-24T12:28:48;98540.84;;;12.81;100.00
53908;BME280;40469;47.998;7.794;2023-04-24T12:31:16;98539.03;;;12.83;100.00
53908;BME280;40469;47.998;7.794;2023-04-24T12:33:42;98540.00;;;12.79;100.00
53908;BME280;40469;47.998;7.794;2023-04-24T12:36:11;98531.78;;;12.58;100.00
53908;BME280;40469;47.998;7.794;2023-04-24T12:38:37;98533.31;;;12.67;100.00
53908;BME280;40469;47.998;7.794;2023-04-24T12:41:08;98532.81;;;13.20;100.00
53908;BME280;40469;47.998;7.794;2023-04-24T12:43:34;98517.81;;;13.25;100.00
53908;BME280;40469;47.998;7.794;2023-04-24T12:46:03;98525.28;;;13.40;100.00
53908;BME280;40469;47.998;7.794;2023-04-24T12:48:29;98513.84;;;13.73;100.00
53908;BME280;40469;47.998;7.794;2023-04-24T12:50:57;98515.84;;;13.94;100.00
53908;BME280;40469;47.998;7.794;2023-04-24T12:53:25;98512.84;;;13.78;99.87
53908;BME280;40469;47.998;7.794;2023-04-24T12:55:51;98504.13;;;13.76;100.00
53908;BME280;40469;47.998;7.794;2023-04-24T12:58:19;98509.31;;;14.08;100.00
53908;BME280;40469;47.998;7.794;2023-04-24T13:00:46;98500.72;;;14.29;97.47